createdAt,value
2023-02-24T00:02:15.521Z,102461.54
2023-02-24T00:04:45.674Z,102452.20
2023-02-24T00:07:14.148Z,102450.45
2023-02-24T00:09:44.888Z,102448.30
2023-02-24T00:12:15.091Z,102439.77
2023-02-24T00:14:48.686Z,102433.44
2023-02-24T00:17:17.264Z,102427.24
2023-02-24T00:19:46.819Z,102423.02
2023-02-24T00:22:15.175Z,102420.63
2023-02-24T00:24:44.456Z,102417.70
2023-02-24T00:27:12.854Z,102413.02
2023-02-24T00:29:45.617Z,102403.83
2023-02-24T00:32:15.202Z,102397.95
2023-02-24T00:34:44.832Z,102396.16
2023-02-24T00:37:15.600Z,102393.00
2023-02-24T00:39:48.131Z,102388.32
2023-02-24T00:42:17.480Z,102381.62
2023-02-24T00:44:46.984Z,102379.40
2023-02-24T00:47:17.379Z,102375.18
2023-02-24T00:49:46.156Z,102372.71
2023-02-24T00:52:19.452Z,102371.75
2023-02-24T00:54:49.187Z,102362.67
2023-02-24T00:57:21.696Z,102356.86
2023-02-24T00:59:54.828Z,102348.06
2023-02-24T01:02:24.232Z,102358.05
2023-02-24T01:04:53.231Z,102354.73
2023-02-24T01:07:21.934Z,102353.31
2023-02-24T01:09:50.608Z,102341.73
2023-02-24T01:12:23.886Z,102338.95
2023-02-24T01:14:53.115Z,102330.30
2023-02-24T01:17:22.096Z,102327.67
2023-02-24T01:19:51.170Z,102325.10
2023-02-24T01:22:20.377Z,102322.75
2023-02-24T01:24:49.258Z,102322.00
2023-02-24T01:27:19.607Z,102317.14
2023-02-24T01:29:50.030Z,102305.52
2023-02-24T01:32:20.400Z,102303.70
2023-02-24T01:34:54.018Z,102308.77
2023-02-24T01:37:22.616Z,102305.35
2023-02-24T01:39:50.891Z,102303.33
2023-02-24T01:42:20.860Z,102308.85
2023-02-24T01:44:52.263Z,102308.86
2023-02-24T01:47:23.717Z,102310.77
2023-02-24T01:49:53.212Z,102308.00
2023-02-24T01:52:30.753Z,102292.34
2023-02-24T01:55:20.313Z,102293.23
2023-02-24T01:57:50.742Z,102287.95
2023-02-24T02:00:32.820Z,102285.05
2023-02-24T02:03:04.232Z,102288.96
2023-02-24T02:05:32.531Z,102282.32
2023-02-24T02:08:03.779Z,102285.48
2023-02-24T02:10:34.204Z,102283.64
2023-02-24T02:13:04.936Z,102274.36
2023-02-24T02:15:37.924Z,102281.60
2023-02-24T02:18:28.655Z,102275.23
2023-02-24T02:21:04.887Z,102274.36
2023-02-24T02:23:50.926Z,102276.46
2023-02-24T02:26:40.772Z,102273.39
2023-02-24T02:29:22.564Z,102268.67
2023-02-24T02:32:09.328Z,102266.02
2023-02-24T02:34:50.642Z,102263.36
2023-02-24T02:37:21.391Z,102258.08
2023-02-24T02:40:22.011Z,102251.39
2023-02-24T02:43:08.545Z,102245.73
2023-02-24T02:46:35.064Z,102244.73
2023-02-24T02:49:17.149Z,102245.64
2023-02-24T02:52:05.915Z,102245.69
2023-02-24T02:54:54.561Z,102250.08
2023-02-24T02:57:28.050Z,102245.35
2023-02-24T03:00:02.196Z,102242.00
2023-02-24T03:02:31.465Z,102240.89
2023-02-24T03:05:02.164Z,102242.13
2023-02-24T03:07:35.153Z,102238.34
2023-02-24T03:10:11.051Z,102233.36
2023-02-24T03:12:39.619Z,102226.29
2023-02-24T03:15:10.862Z,102222.17
2023-02-24T03:17:41.175Z,102215.28
2023-02-24T03:20:36.404Z,102217.41
2023-02-24T03:23:12.046Z,102216.27
2023-02-24T03:26:17.369Z,102211.86
2023-02-24T03:29:13.416Z,102209.33
2023-02-24T03:31:54.455Z,102205.59
2023-02-24T03:34:57.276Z,102201.80
2023-02-24T03:37:28.090Z,102200.23
2023-02-24T03:39:58.436Z,102196.23
2023-02-24T03:42:30.379Z,102194.52
2023-02-24T03:44:58.679Z,102191.92
2023-02-24T03:47:27.462Z,102185.06
2023-02-24T03:49:56.146Z,102178.38
2023-02-24T03:52:32.819Z,102175.66
2023-02-24T03:55:07.445Z,102175.20
2023-02-24T03:58:04.493Z,102164.85
2023-02-24T04:00:38.708Z,102158.65
2023-02-24T04:03:25.942Z,102155.02
2023-02-24T04:06:21.047Z,102153.97
2023-02-24T04:09:16.750Z,102151.08
2023-02-24T04:11:59.306Z,102143.67
2023-02-24T04:14:38.593Z,102137.50
2023-02-24T04:17:27.148Z,102135.98
2023-02-24T04:19:59.123Z,102129.11
2023-02-24T04:22:27.894Z,102129.63
2023-02-24T04:24:59.940Z,102128.28
2023-02-24T04:27:28.662Z,102123.40
2023-02-24T04:30:05.211Z,102117.88
2023-02-24T04:32:34.649Z,102112.36
2023-02-24T04:35:09.752Z,102110.64
2023-02-24T04:37:45.030Z,102109.46
2023-02-24T04:40:17.771Z,102110.90
2023-02-24T04:42:49.322Z,102111.80
2023-02-24T04:45:18.732Z,102102.83
2023-02-24T04:47:49.641Z,102102.48
2023-02-24T04:50:25.438Z,102098.52
2023-02-24T04:53:01.159Z,102088.84
2023-02-24T04:55:33.317Z,102083.30
2023-02-24T04:58:02.454Z,102086.10
2023-02-24T05:00:35.952Z,102088.91
2023-02-24T05:03:05.229Z,102086.02
2023-02-24T05:05:33.858Z,102081.21
2023-02-24T05:08:04.957Z,102080.23
2023-02-24T05:10:40.713Z,102074.52
2023-02-24T05:13:09.604Z,102075.22
2023-02-24T05:15:40.651Z,102073.84
2023-02-24T05:18:10.141Z,102078.36
2023-02-24T05:21:00.812Z,102079.27
2023-02-24T05:23:39.454Z,102077.25
2023-02-24T05:26:27.834Z,102069.50
2023-02-24T05:28:56.755Z,102065.89
2023-02-24T05:31:29.720Z,102063.48
2023-02-24T05:34:06.828Z,102062.30
2023-02-24T05:36:40.720Z,102059.41
2023-02-24T05:39:12.905Z,102053.57
2023-02-24T05:41:42.570Z,102053.45
2023-02-24T05:44:23.812Z,102055.38
2023-02-24T05:46:59.359Z,102051.95
2023-02-24T05:49:33.218Z,102053.17
2023-02-24T05:52:08.034Z,102049.21
2023-02-24T05:54:42.938Z,102047.31
2023-02-24T05:57:13.248Z,102045.42
2023-02-24T05:59:43.215Z,102045.98
2023-02-24T06:02:15.418Z,102047.23
2023-02-24T06:04:54.141Z,102046.55
2023-02-24T06:07:25.217Z,102045.02
2023-02-24T06:09:58.798Z,102043.30
2023-02-24T06:12:29.932Z,102040.54
2023-02-24T06:15:08.056Z,102041.27
2023-02-24T06:17:36.858Z,102043.54
2023-02-24T06:20:15.049Z,102036.48
2023-02-24T06:22:43.637Z,102034.58
2023-02-24T06:25:16.003Z,102030.77
2023-02-24T06:27:45.592Z,102029.05
2023-02-24T06:30:15.408Z,102025.60
2023-02-24T06:32:45.184Z,102020.77
2023-02-24T06:35:15.663Z,102023.04
2023-02-24T06:37:51.010Z,102013.18
2023-02-24T06:40:20.206Z,102006.98
2023-02-24T06:42:49.619Z,102005.06
2023-02-24T06:45:19.017Z,102005.25
2023-02-24T06:47:49.124Z,102005.77
2023-02-24T06:50:20.389Z,101997.98
2023-02-24T06:52:49.794Z,101997.48
2023-02-24T06:55:28.210Z,101991.44
2023-02-24T06:57:58.966Z,101983.66
2023-02-24T07:00:37.427Z,101975.86
2023-02-24T07:03:15.386Z,101973.96
2023-02-24T07:05:54.637Z,101969.45
2023-02-24T07:08:24.894Z,101966.35
2023-02-24T07:10:57.018Z,101964.29
2023-02-24T07:13:26.365Z,101962.73
2023-02-24T07:16:07.449Z,101962.73
2023-02-24T07:18:37.256Z,101963.59
2023-02-24T07:21:11.623Z,101963.92
2023-02-24T07:23:40.864Z,101959.42
2023-02-24T07:26:14.061Z,101962.71
2023-02-24T07:28:43.671Z,101962.02
2023-02-24T07:31:13.557Z,101954.41
2023-02-24T07:33:45.263Z,101956.67
2023-02-24T07:36:15.213Z,101957.20
2023-02-24T07:38:44.532Z,101956.86
2023-02-24T07:41:15.460Z,101955.30
2023-02-24T07:43:44.475Z,101955.13
2023-02-24T07:46:14.509Z,101956.34
2023-02-24T07:48:42.789Z,101953.39
2023-02-24T07:51:15.647Z,101953.21
2023-02-24T07:53:53.131Z,101950.45
2023-02-24T07:56:27.239Z,101953.91
2023-02-24T07:59:02.265Z,101951.67
2023-02-24T08:01:39.199Z,101950.30
2023-02-24T08:04:08.663Z,101950.10
2023-02-24T08:06:39.248Z,101948.04
2023-02-24T08:09:19.448Z,101948.55
2023-02-24T08:11:55.102Z,101947.00
2023-02-24T08:14:25.944Z,101942.86
2023-02-24T08:17:01.482Z,101943.38
2023-02-24T08:19:33.648Z,101943.72
2023-02-24T08:22:19.743Z,101943.39
2023-02-24T08:24:55.615Z,101944.41
2023-02-24T08:27:25.041Z,101940.61
2023-02-24T08:30:01.691Z,101935.40
2023-02-24T08:32:38.306Z,101938.36
2023-02-24T08:35:17.780Z,101936.97
2023-02-24T08:37:48.771Z,101935.40
2023-02-24T08:40:34.034Z,101934.55
2023-02-24T08:43:31.384Z,101928.30
2023-02-24T08:46:12.720Z,101925.55
2023-02-24T08:48:47.925Z,101922.59
2023-02-24T08:51:22.762Z,101917.91
2023-02-24T08:53:55.591Z,101919.30
2023-02-24T08:56:34.923Z,101915.15
2023-02-24T08:59:08.018Z,101915.85
2023-02-24T09:01:40.316Z,101915.50
2023-02-24T09:04:10.933Z,101912.55
2023-02-24T09:06:40.557Z,101908.75
2023-02-24T09:09:18.145Z,101908.92
2023-02-24T09:11:56.736Z,101906.32
2023-02-24T09:14:29.446Z,101902.52
2023-02-24T09:17:11.667Z,101906.50
2023-02-24T09:19:47.043Z,101904.93
2023-02-24T09:22:31.703Z,101898.87
2023-02-24T09:25:18.082Z,101891.08
2023-02-24T09:28:08.338Z,101892.65
2023-02-24T09:31:02.070Z,101890.92
2023-02-24T09:33:39.439Z,101886.92
2023-02-24T09:36:20.618Z,101884.49
2023-02-24T09:39:00.843Z,101877.56
2023-02-24T09:41:57.120Z,101881.04
2023-02-24T09:44:27.454Z,101873.92
2023-02-24T09:47:09.322Z,101873.06
2023-02-24T09:49:48.688Z,101865.78
2023-02-24T09:52:18.551Z,101865.27
2023-02-24T09:55:14.836Z,101861.45
2023-02-24T09:58:18.551Z,101857.48
2023-02-24T10:01:21.242Z,101846.39
2023-02-24T10:04:21.200Z,101838.25
2023-02-24T10:06:52.030Z,101833.05
2023-02-24T10:09:38.993Z,101831.15
2023-02-24T10:12:17.488Z,101825.43
2023-02-24T10:14:53.246Z,101823.00
2023-02-24T10:17:23.889Z,101818.14
2023-02-24T10:20:39.602Z,101812.25
2023-02-24T10:23:33.024Z,101802.55
2023-02-24T10:26:32.243Z,101795.63
2023-02-24T10:29:18.973Z,101786.27
2023-02-24T10:31:57.889Z,101784.20
2023-02-24T10:34:32.028Z,101775.02
2023-02-24T10:37:26.143Z,101767.56
2023-02-24T10:40:00.584Z,101757.34
2023-02-24T10:42:32.854Z,101752.48
2023-02-24T10:45:17.235Z,101746.40
2023-02-24T10:47:59.102Z,101735.65
2023-02-24T10:50:55.092Z,101729.59
2023-02-24T10:53:30.095Z,101726.30
2023-02-24T10:56:26.850Z,101718.66
2023-02-24T10:59:23.213Z,101718.48
2023-02-24T11:02:23.948Z,101708.60
2023-02-24T11:05:02.895Z,101707.39
2023-02-24T11:07:46.738Z,101705.30
2023-02-24T11:10:45.733Z,101692.65
2023-02-24T11:13:34.851Z,101688.31
2023-02-24T11:16:22.282Z,101680.70
2023-02-24T11:18:52.849Z,101679.83
2023-02-24T11:21:24.001Z,101677.56
2023-02-24T11:23:59.959Z,101672.54
2023-02-24T11:26:46.552Z,101663.88
2023-02-24T11:30:01.956Z,101659.73
2023-02-24T11:32:33.543Z,101658.67
2023-02-24T11:35:22.765Z,101653.66
2023-02-24T11:38:17.861Z,101652.60
2023-02-24T11:40:48.550Z,101650.52
2023-02-24T11:43:21.561Z,101648.10
2023-02-24T11:45:58.581Z,101648.30
2023-02-24T11:48:36.871Z,101646.90
2023-02-24T11:51:07.806Z,101640.67
2023-02-24T11:53:54.229Z,101638.59
2023-02-24T11:56:29.652Z,101636.69
2023-02-24T11:59:13.086Z,101635.64
2023-02-24T12:02:11.977Z,101630.29
2023-02-24T12:05:15.279Z,101628.21
2023-02-24T12:07:48.762Z,101620.97
2023-02-24T12:10:28.925Z,101617.84
2023-02-24T12:13:11.885Z,101609.54
2023-02-24T12:16:03.395Z,101607.11
2023-02-24T12:18:39.612Z,101598.12
2023-02-24T12:21:10.361Z,101596.73
2023-02-24T12:23:41.481Z,101588.77
2023-02-24T12:26:16.033Z,101583.42
2023-02-24T12:29:16.442Z,101580.48
2023-02-24T12:32:16.125Z,101575.99
2023-02-24T12:35:07.575Z,101573.55
2023-02-24T12:37:57.465Z,101569.40
2023-02-24T12:40:40.733Z,101567.33
2023-02-24T12:43:47.057Z,101568.34
2023-02-24T12:46:27.005Z,101566.45
2023-02-24T12:49:05.569Z,101566.98
2023-02-24T12:51:39.736Z,101563.49
2023-02-24T12:54:30.408Z,101561.41
2023-02-24T12:57:03.574Z,101554.85
2023-02-24T12:59:34.022Z,101556.95
2023-02-24T13:02:39.651Z,101553.31
2023-02-24T13:05:19.883Z,101547.61
2023-02-24T13:08:35.139Z,101550.23
2023-02-24T13:11:39.572Z,101546.75
2023-02-24T13:14:20.638Z,101538.45
2023-02-24T13:16:49.202Z,101533.27
2023-02-24T13:19:19.198Z,101526.16
2023-02-24T13:22:12.188Z,101522.36
2023-02-24T13:25:07.189Z,101513.86
2023-02-24T13:27:37.205Z,101501.55
2023-02-24T13:30:11.834Z,101500.52
2023-02-24T13:32:46.185Z,101501.38
2023-02-24T13:35:18.210Z,101499.81
2023-02-24T13:37:48.018Z,101499.14
2023-02-24T13:40:16.720Z,101496.55
2023-02-24T13:42:56.768Z,101496.35
2023-02-24T13:45:30.593Z,101492.71
2023-02-24T13:48:36.638Z,101489.06
2023-02-24T13:51:08.799Z,101479.38
2023-02-24T13:53:37.385Z,101476.27
2023-02-24T13:56:26.552Z,101470.92
2023-02-24T13:59:19.407Z,101466.42
2023-02-24T14:01:52.137Z,101460.70
2023-02-24T14:04:27.225Z,101456.54
2023-02-24T14:07:00.645Z,101451.52
2023-02-24T14:09:40.247Z,101452.53
2023-02-24T14:12:16.427Z,101445.62
2023-02-24T14:14:44.798Z,101445.45
2023-02-24T14:17:28.914Z,101441.11
2023-02-24T14:20:20.458Z,101429.68
2023-02-24T14:22:53.651Z,101427.77
2023-02-24T14:25:23.568Z,101417.89
2023-02-24T14:27:52.970Z,101409.92
2023-02-24T14:30:23.041Z,101400.22
2023-02-24T14:32:51.677Z,101396.23
2023-02-24T14:35:42.296Z,101392.58
2023-02-24T14:38:38.088Z,101384.95
2023-02-24T14:41:30.332Z,101382.02
2023-02-24T14:43:59.012Z,101382.70
2023-02-24T14:46:27.950Z,101382.52
2023-02-24T14:49:00.273Z,101374.72
2023-02-24T14:51:36.402Z,101371.23
2023-02-24T14:54:07.376Z,101369.85
2023-02-24T14:56:36.876Z,101369.34
2023-02-24T14:59:08.426Z,101367.78
2023-02-24T15:01:40.314Z,101363.63
2023-02-24T15:04:34.469Z,101363.96
2023-02-24T15:07:05.171Z,101354.44
2023-02-24T15:09:40.407Z,101359.11
2023-02-24T15:12:12.903Z,101357.73
2023-02-24T15:14:41.838Z,101360.53
2023-02-24T15:17:11.933Z,101358.63
2023-02-24T15:19:45.989Z,101353.08
2023-02-24T15:22:28.381Z,101346.30
2023-02-24T15:25:37.141Z,101348.20
2023-02-24T15:28:22.117Z,101349.41
2023-02-24T15:31:02.002Z,101351.66
2023-02-24T15:33:40.070Z,101348.72
2023-02-24T15:36:12.997Z,101350.78
2023-02-24T15:38:42.823Z,101349.92
2023-02-24T15:41:11.495Z,101345.78
2023-02-24T15:43:50.339Z,101345.80
2023-02-24T15:46:19.189Z,101348.21
2023-02-24T15:48:48.782Z,101346.32
2023-02-24T15:51:23.649Z,101346.14
2023-02-24T15:53:52.227Z,101346.83
2023-02-24T15:56:20.887Z,101342.50
2023-02-24T15:58:49.352Z,101339.21
2023-02-24T16:01:20.491Z,101338.34
2023-02-24T16:03:49.745Z,101336.27
2023-02-24T16:06:19.585Z,101335.56
2023-02-24T16:08:49.377Z,101334.33
2023-02-24T16:11:19.687Z,101337.10
2023-02-24T16:13:59.995Z,101330.52
2023-02-24T16:16:28.328Z,101331.21
2023-02-24T16:18:57.157Z,101335.73
2023-02-24T16:21:25.587Z,101330.89
2023-02-24T16:23:53.828Z,101334.67
2023-02-24T16:26:23.480Z,101329.82
2023-02-24T16:28:56.699Z,101325.30
2023-02-24T16:31:27.086Z,101324.63
2023-02-24T16:33:56.286Z,101322.20
2023-02-24T16:36:25.198Z,101321.67
2023-02-24T16:38:53.815Z,101320.80
2023-02-24T16:41:22.065Z,101322.54
2023-02-24T16:43:50.900Z,101316.12
2023-02-24T16:46:21.303Z,101311.96
2023-02-24T16:48:50.932Z,101307.80
2023-02-24T16:51:19.397Z,101306.06
2023-02-24T16:53:49.261Z,101303.96
2023-02-24T16:56:18.188Z,101304.48
2023-02-24T16:58:46.964Z,101300.48
2023-02-24T17:01:19.136Z,101300.14
2023-02-24T17:03:49.444Z,101294.58
2023-02-24T17:06:20.832Z,101290.58
2023-02-24T17:08:50.844Z,101286.05
2023-02-24T17:11:20.424Z,101281.56
2023-02-24T17:13:49.959Z,101278.45
2023-02-24T17:16:19.245Z,101270.66
2023-02-24T17:18:48.600Z,101264.59
2023-02-24T17:21:18.164Z,101258.85
2023-02-24T17:23:46.525Z,101260.76
2023-02-24T17:26:15.021Z,101260.41
2023-02-24T17:28:43.426Z,101258.16
2023-02-24T17:31:12.735Z,101258.33
2023-02-24T17:33:41.658Z,101256.40
2023-02-24T17:36:10.202Z,101253.96
2023-02-24T17:38:38.350Z,101248.08
2023-02-24T17:41:06.536Z,101243.59
2023-02-24T17:43:35.291Z,101238.91
2023-02-24T17:46:07.366Z,101237.86
2023-02-24T17:48:36.674Z,101235.23
2023-02-24T17:51:16.050Z,101235.21
2023-02-24T17:53:44.811Z,101229.67
2023-02-24T17:56:13.074Z,101221.34
2023-02-24T17:58:41.667Z,101219.27
2023-02-24T18:01:09.860Z,101210.25
2023-02-24T18:03:38.628Z,101206.93
2023-02-24T18:06:11.289Z,101200.70
2023-02-24T18:08:43.237Z,101196.89
2023-02-24T18:11:15.608Z,101195.00
2023-02-24T18:13:50.981Z,101188.07
2023-02-24T18:16:19.927Z,101183.92
2023-02-24T18:18:48.557Z,101178.70
2023-02-24T18:21:16.777Z,101176.80
2023-02-24T18:23:45.896Z,101172.61
2023-02-24T18:26:14.015Z,101171.73
2023-02-24T18:28:42.847Z,101166.52
2023-02-24T18:31:15.855Z,101169.42
2023-02-24T18:33:44.499Z,101169.23
2023-02-24T18:36:12.832Z,101171.84
2023-02-24T18:38:41.080Z,101169.90
2023-02-24T18:41:11.855Z,101167.48
2023-02-24T18:43:40.390Z,101173.02
2023-02-24T18:46:12.246Z,101172.33
2023-02-24T18:48:41.378Z,101166.61
2023-02-24T18:51:09.946Z,101167.98
2023-02-24T18:53:38.928Z,101162.44
2023-02-24T18:56:09.868Z,101155.81
2023-02-24T18:58:38.736Z,101150.42
2023-02-24T19:01:14.169Z,101145.06
2023-02-24T19:03:42.837Z,101148.52
2023-02-24T19:06:11.647Z,101158.93
2023-02-24T19:08:40.539Z,101149.74
2023-02-24T19:11:10.299Z,101148.70
2023-02-24T19:13:38.508Z,101149.04
2023-02-24T19:16:07.472Z,101152.48
2023-02-24T19:18:36.544Z,101146.56
2023-02-24T19:21:06.537Z,101146.20
2023-02-24T19:23:36.645Z,101135.95
2023-02-24T19:26:05.398Z,101140.96
2023-02-24T19:28:33.648Z,101135.77
2023-02-24T19:31:02.123Z,101128.69
2023-02-24T19:33:30.412Z,101125.39
2023-02-24T19:35:59.771Z,101118.83
2023-02-24T19:38:28.587Z,101117.95
2023-02-24T19:40:59.660Z,101113.75
2023-02-24T19:43:28.385Z,101112.19
2023-02-24T19:45:56.644Z,101115.13
2023-02-24T19:48:25.214Z,101111.66
2023-02-24T19:50:53.539Z,101109.05
2023-02-24T19:53:22.079Z,101107.31
2023-02-24T19:55:50.717Z,101109.04
2023-02-24T19:58:18.888Z,101104.70
2023-02-24T20:00:48.365Z,101100.87
2023-02-24T20:03:18.623Z,101094.45
2023-02-24T20:05:46.927Z,101098.05
2023-02-24T20:08:15.739Z,101100.67
2023-02-24T20:10:44.186Z,101096.17
2023-02-24T20:13:16.686Z,101086.46
2023-02-24T20:15:44.901Z,101084.20
2023-02-24T20:18:13.179Z,101077.92
2023-02-24T20:20:44.743Z,101070.48
2023-02-24T20:23:13.596Z,101068.36
2023-02-24T20:25:53.313Z,101061.93
2023-02-24T20:28:22.154Z,101058.80
2023-02-24T20:30:54.968Z,101055.99
2023-02-24T20:33:23.261Z,101052.17
2023-02-24T20:35:51.672Z,101054.74
2023-02-24T20:38:20.376Z,101051.80
2023-02-24T20:41:00.257Z,101052.31
2023-02-24T20:43:28.766Z,101045.52
2023-02-24T20:45:57.029Z,101041.69
2023-02-24T20:48:25.370Z,101035.59
2023-02-24T20:50:53.612Z,101033.86
2023-02-24T20:53:23.282Z,101030.02
2023-02-24T20:55:51.732Z,101030.20
2023-02-24T20:58:20.417Z,101022.93
2023-02-24T21:00:48.623Z,101016.84
2023-02-24T21:03:17.877Z,101009.21
2023-02-24T21:05:46.552Z,101008.88
2023-02-24T21:08:14.932Z,100999.16
2023-02-24T21:10:46.241Z,100992.59
2023-02-24T21:13:16.319Z,100990.34
2023-02-24T21:15:54.109Z,100991.40
2023-02-24T21:18:23.170Z,100992.28
2023-02-24T21:20:54.615Z,100992.08
2023-02-24T21:23:22.990Z,100984.44
2023-02-24T21:25:54.206Z,100983.20
2023-02-24T21:28:22.646Z,100978.86
2023-02-24T21:30:51.106Z,100977.45
2023-02-24T21:33:19.515Z,100975.52
2023-02-24T21:36:09.769Z,100969.27
2023-02-24T21:38:38.616Z,100972.39
2023-02-24T21:41:07.889Z,100968.39
2023-02-24T21:43:37.939Z,100963.52
2023-02-24T21:46:09.283Z,100962.98
2023-02-24T21:48:38.883Z,100962.79
2023-02-24T21:51:09.607Z,100959.61
2023-02-24T21:53:39.611Z,100960.12
2023-02-24T21:56:16.477Z,100956.64
2023-02-24T21:58:46.643Z,100957.84
2023-02-24T22:01:26.890Z,100956.24
2023-02-24T22:03:59.548Z,100950.33
2023-02-24T22:06:31.782Z,100945.83
2023-02-24T22:09:02.127Z,100941.98
2023-02-24T22:11:35.350Z,100938.52
2023-02-24T22:14:06.300Z,100938.00
2023-02-24T22:16:34.850Z,100930.02
2023-02-24T22:19:03.082Z,100930.73
2023-02-24T22:21:32.421Z,100927.96
2023-02-24T22:24:01.995Z,100927.61
2023-02-24T22:26:30.608Z,100923.81
2023-02-24T22:28:59.107Z,100919.82
2023-02-24T22:31:31.520Z,100922.41
2023-02-24T22:34:00.111Z,100921.38
2023-02-24T22:36:31.023Z,100918.91
2023-02-24T22:39:00.342Z,100918.72
2023-02-24T22:41:33.102Z,100910.38
2023-02-24T22:44:04.386Z,100907.59
2023-02-24T22:46:34.848Z,100899.80
2023-02-24T22:49:03.200Z,100896.85
2023-02-24T22:51:31.547Z,100894.08
2023-02-24T22:53:59.685Z,100896.66
2023-02-24T22:56:29.172Z,100899.44
2023-02-24T22:58:57.853Z,100894.92
2023-02-24T23:01:36.168Z,100887.67
2023-02-24T23:04:06.246Z,100881.45
2023-02-24T23:06:35.024Z,100875.21
2023-02-24T23:09:03.916Z,100871.03
2023-02-24T23:11:41.336Z,100872.02
2023-02-24T23:14:13.913Z,100871.14
2023-02-24T23:16:44.620Z,100865.23
2023-02-24T23:19:16.819Z,100867.11
2023-02-24T23:21:50.365Z,100864.15
2023-02-24T23:24:22.082Z,100855.63
2023-02-24T23:26:54.142Z,100855.79
2023-02-24T23:29:24.349Z,100844.88
2023-02-24T23:31:52.833Z,100842.95
2023-02-24T23:34:21.180Z,100844.02
2023-02-24T23:36:49.468Z,100850.43
2023-02-24T23:39:23.191Z,100852.52
2023-02-24T23:41:56.854Z,100846.12
2023-02-24T23:44:25.633Z,100843.64
2023-02-24T23:46:54.202Z,100840.48
2023-02-24T23:49:24.177Z,100830.04
2023-02-24T23:51:53.104Z,100818.19
2023-02-24T23:54:21.433Z,100810.55
2023-02-24T23:56:49.839Z,100804.67
2023-02-24T23:59:21.657Z,100808.87
